sensor_id;sensor_type;location;lat;lon;timestamp;pressure;altitude;pressure_sealevel;temperature
24714;BMP280;12820;51.580;5.010;2024-03-23T00:57:00;101132.28;;;10.44
24714;BMP280;12820;51.580;5.010;2024-03-23T01:02:01;101131.47;;;10.40
24714;BMP280;12820;51.580;5.010;2024-03-23T01:07:02;101124.81;;;10.38
24714;BMP280;12820;51.580;5.010;2024-03-23T01:12:04;101121.47;;;10.36
24714;BMP280;12820;51.580;5.010;2024-03-23T01:17:05;101123.16;;;10.35
24714;BMP280;12820;51.580;5.010;2024-03-23T01:22:07;101119.84;;;10.33
24714;BMP280;12820;51.580;5.010;2024-03-23T01:27:08;101118.16;;;10.32
24714;BMP280;12820;51.580;5.010;2024-03-23T01:32:10;101132.41;;;10.32
24714;BMP280;12820;51.580;5.010;2024-03-23T01:37:11;101107.31;;;10.28
24714;BMP280;12820;51.580;5.010;2024-03-23T01:42:12;101088.91;;;10.26
24714;BMP280;12820;51.580;5.010;2024-03-23T01:47:13;101078.06;;;10.21
24714;BMP280;12820;51.580;5.010;2024-03-23T01:52:14;101077.25;;;10.17
24714;BMP280;12820;51.580;5.010;2024-03-23T01:57:15;101065.59;;;10.11
24714;BMP280;12820;51.580;5.010;2024-03-23T02:02:17;101062.28;;;10.07
24714;BMP280;12820;51.580;5.010;2024-03-23T02:07:19;101056.47;;;10.02
24714;BMP280;12820;51.580;5.010;2024-03-23T02:12:21;101053.19;;;9.94
24714;BMP280;12820;51.580;5.010;2024-03-23T02:17:22;101051.56;;;9.91
24714;BMP280;12820;51.580;5.010;2024-03-23T02:22:23;101048.28;;;9.81
24714;BMP280;12820;51.580;5.010;2024-03-23T02:27:24;101050.00;;;9.69
24714;BMP280;12820;51.580;5.010;2024-03-23T02:32:25;101054.22;;;9.64
24714;BMP280;12820;51.580;5.010;2024-03-23T02:37:27;101060.16;;;9.58
24714;BMP280;12820;51.580;5.010;2024-03-23T02:42:28;101056.00;;;9.51
24714;BMP280;12820;51.580;5.010;2024-03-23T02:47:39;101065.22;;;9.46
24714;BMP280;12820;51.580;5.010;2024-03-23T02:52:40;101054.44;;;9.32
24714;BMP280;12820;51.580;5.010;2024-03-23T02:57:41;101054.50;;;9.23
24714;BMP280;12820;51.580;5.010;2024-03-23T03:02:42;101052.88;;;9.15
24714;BMP280;12820;51.580;5.010;2024-03-23T03:07:44;101059.63;;;9.03
24714;BMP280;12820;51.580;5.010;2024-03-23T03:12:45;101064.66;;;8.99
24714;BMP280;12820;51.580;5.010;2024-03-23T03:17:46;101063.84;;;8.89
24714;BMP280;12820;51.580;5.010;2024-03-23T03:22:47;101058.03;;;8.79
24714;BMP280;12820;51.580;5.010;2024-03-23T03:27:48;101050.56;;;8.69
24714;BMP280;12820;51.580;5.010;2024-03-23T03:32:54;101049.75;;;8.62
24714;BMP280;12820;51.580;5.010;2024-03-23T03:37:56;101045.63;;;8.52
24714;BMP280;12820;51.580;5.010;2024-03-23T03:42:57;101042.31;;;8.43
24714;BMP280;12820;51.580;5.010;2024-03-23T03:47:58;101041.47;;;8.35
24714;BMP280;12820;51.580;5.010;2024-03-23T03:53:00;101039.00;;;8.28
24714;BMP280;12820;51.580;5.010;2024-03-23T03:58:01;101034.00;;;8.22
24714;BMP280;12820;51.580;5.010;2024-03-23T04:03:03;101022.31;;;8.14
24714;BMP280;12820;51.580;5.010;2024-03-23T04:08:06;101024.81;;;8.07
24714;BMP280;12820;51.580;5.010;2024-03-23T04:13:08;101034.00;;;8.02
24714;BMP280;12820;51.580;5.010;2024-03-23T04:18:09;101039.00;;;7.96
24714;BMP280;12820;51.580;5.010;2024-03-23T04:23:10;101038.16;;;7.90
24714;BMP280;12820;51.580;5.010;2024-03-23T04:28:11;101047.34;;;7.86
24714;BMP280;12820;51.580;5.010;2024-03-23T04:33:12;101034.84;;;7.80
24714;BMP280;12820;51.580;5.010;2024-03-23T04:38:13;101037.31;;;7.79
24714;BMP280;12820;51.580;5.010;2024-03-23T04:43:14;101033.16;;;7.72
24714;BMP280;12820;51.580;5.010;2024-03-23T04:48:16;101032.34;;;7.67
24714;BMP280;12820;51.580;5.010;2024-03-23T04:53:18;101023.16;;;7.63
24714;BMP280;12820;51.580;5.010;2024-03-23T04:58:19;101027.34;;;7.63
24714;BMP280;12820;51.580;5.010;2024-03-23T05:03:20;101020.66;;;7.61
24714;BMP280;12820;51.580;5.010;2024-03-23T05:08:22;101033.16;;;7.56
24714;BMP280;12820;51.580;5.010;2024-03-23T05:13:23;101026.47;;;7.52
24714;BMP280;12820;51.580;5.010;2024-03-23T05:18:24;101032.31;;;7.56
24714;BMP280;12820;51.580;5.010;2024-03-23T05:23:30;101025.63;;;7.50
24714;BMP280;12820;51.580;5.010;2024-03-23T05:28:31;101036.47;;;7.51
24714;BMP280;12820;51.580;5.010;2024-03-23T05:33:33;101029.81;;;7.50
24714;BMP280;12820;51.580;5.010;2024-03-23T05:38:34;101023.16;;;7.47
24714;BMP280;12820;51.580;5.010;2024-03-23T05:43:35;101031.47;;;7.51
24714;BMP280;12820;51.580;5.010;2024-03-23T05:48:36;101032.31;;;7.57
24714;BMP280;12820;51.580;5.010;2024-03-23T05:53:38;101023.13;;;7.59
24714;BMP280;12820;51.580;5.010;2024-03-23T05:58:39;101022.34;;;7.63
24714;BMP280;12820;51.580;5.010;2024-03-23T06:03:40;101030.66;;;7.69
24714;BMP280;12820;51.580;5.010;2024-03-23T06:08:41;101047.34;;;7.80
24714;BMP280;12820;51.580;5.010;2024-03-23T06:13:43;101043.16;;;7.90
24714;BMP280;12820;51.580;5.010;2024-03-23T06:18:44;101049.03;;;7.98
24714;BMP280;12820;51.580;5.010;2024-03-23T06:23:45;101042.34;;;8.04
24714;BMP280;12820;51.580;5.010;2024-03-23T06:28:52;101031.50;;;8.18
24714;BMP280;12820;51.580;5.010;2024-03-23T06:33:55;101033.16;;;8.29
24714;BMP280;12820;51.580;5.010;2024-03-23T06:38:56;101031.44;;;8.43
24714;BMP280;12820;51.580;5.010;2024-03-23T06:43:57;101038.91;;;8.54
24714;BMP280;12820;51.580;5.010;2024-03-23T06:48:59;101039.75;;;8.58
24714;BMP280;12820;51.580;5.010;2024-03-23T06:54:00;101042.25;;;8.62
24714;BMP280;12820;51.580;5.010;2024-03-23T06:59:01;101037.22;;;8.64
24714;BMP280;12820;51.580;5.010;2024-03-23T07:04:03;101044.72;;;8.65
24714;BMP280;12820;51.580;5.010;2024-03-23T07:09:04;101044.69;;;8.77
24714;BMP280;12820;51.580;5.010;2024-03-23T07:14:06;101051.34;;;8.82
24714;BMP280;12820;51.580;5.010;2024-03-23T07:19:07;101048.00;;;8.86
24714;BMP280;12820;51.580;5.010;2024-03-23T07:24:09;101047.16;;;8.90
24714;BMP280;12820;51.580;5.010;2024-03-23T07:29:10;101055.50;;;8.96
24714;BMP280;12820;51.580;5.010;2024-03-23T07:34:11;101044.56;;;9.02
24714;BMP280;12820;51.580;5.010;2024-03-23T07:39:12;101043.69;;;9.11
24714;BMP280;12820;51.580;5.010;2024-03-23T07:44:13;101042.84;;;9.15
24714;BMP280;12820;51.580;5.010;2024-03-23T07:49:14;101038.66;;;9.17
24714;BMP280;12820;51.580;5.010;2024-03-23T07:54:16;101035.25;;;9.28
24714;BMP280;12820;51.580;5.010;2024-03-23T07:59:17;101028.50;;;9.36
24714;BMP280;12820;51.580;5.010;2024-03-23T08:04:19;101026.75;;;9.45
24714;BMP280;12820;51.580;5.010;2024-03-23T08:09:21;101024.13;;;9.63
24714;BMP280;12820;51.580;5.010;2024-03-23T08:14:22;101028.19;;;9.83
24714;BMP280;12820;51.580;5.010;2024-03-23T08:19:23;101022.88;;;10.15
24714;BMP280;12820;51.580;5.010;2024-03-23T08:24:24;101022.59;;;10.40
24714;BMP280;12820;51.580;5.010;2024-03-23T08:29:25;101020.81;;;10.50
24714;BMP280;12820;51.580;5.010;2024-03-23T08:34:27;101025.84;;;10.52
24714;BMP280;12820;51.580;5.010;2024-03-23T08:39:28;101029.25;;;10.48
24714;BMP280;12820;51.580;5.010;2024-03-23T08:44:29;101030.03;;;10.51
24714;BMP280;12820;51.580;5.010;2024-03-23T08:49:31;101039.25;;;10.52
24714;BMP280;12820;51.580;5.010;2024-03-23T08:54:32;101035.84;;;10.53
24714;BMP280;12820;51.580;5.010;2024-03-23T08:59:33;101028.41;;;10.48
24714;BMP280;12820;51.580;5.010;2024-03-23T09:04:34;101025.06;;;10.44
24714;BMP280;12820;51.580;5.010;2024-03-23T09:09:38;101016.75;;;10.42
24714;BMP280;12820;51.580;5.010;2024-03-23T09:14:40;101017.53;;;10.47
24714;BMP280;12820;51.580;5.010;2024-03-23T09:19:41;101020.66;;;10.64
24714;BMP280;12820;51.580;5.010;2024-03-23T09:24:42;101018.47;;;11.05
24714;BMP280;12820;51.580;5.010;2024-03-23T09:29:44;101007.03;;;11.44
24714;BMP280;12820;51.580;5.010;2024-03-23T09:34:46;101021.78;;;11.66
24714;BMP280;12820;51.580;5.010;2024-03-23T09:39:48;101007.31;;;11.79
24714;BMP280;12820;51.580;5.010;2024-03-23T09:44:51;101005.13;;;12.07
24714;BMP280;12820;51.580;5.010;2024-03-23T09:49:52;100999.72;;;12.26
24714;BMP280;12820;51.580;5.010;2024-03-23T09:54:54;101005.56;;;12.28
24714;BMP280;12820;51.580;5.010;2024-03-23T09:59:55;101002.25;;;12.71
24714;BMP280;12820;51.580;5.010;2024-03-23T10:04:58;101040.00;;;12.74
24714;BMP280;12820;51.580;5.010;2024-03-23T10:10:10;101026.34;;;12.41
24714;BMP280;12820;51.580;5.010;2024-03-23T10:15:19;101031.16;;;12.07
24714;BMP280;12820;51.580;5.010;2024-03-23T10:20:23;101019.06;;;11.77
24714;BMP280;12820;51.580;5.010;2024-03-23T10:25:24;101021.03;;;11.61
24714;BMP280;12820;51.580;5.010;2024-03-23T10:30:25;101013.50;;;11.58
24714;BMP280;12820;51.580;5.010;2024-03-23T10:35:28;100997.16;;;11.82
24714;BMP280;12820;51.580;5.010;2024-03-23T10:40:30;100990.25;;;12.39
24714;BMP280;12820;51.580;5.010;2024-03-23T10:45:31;100990.47;;;13.47
24714;BMP280;12820;51.580;5.010;2024-03-23T10:50:33;100975.66;;;14.89
24714;BMP280;12820;51.580;5.010;2024-03-23T10:55:34;100974.25;;;15.34
24714;BMP280;12820;51.580;5.010;2024-03-23T11:00:36;100971.50;;;15.15
24714;BMP280;12820;51.580;5.010;2024-03-23T11:05:38;100976.72;;;15.63
24714;BMP280;12820;51.580;5.010;2024-03-23T11:10:39;100978.41;;;17.66
24714;BMP280;12820;51.580;5.010;2024-03-23T11:15:41;100978.22;;;18.31
24714;BMP280;12820;51.580;5.010;2024-03-23T11:20:42;100959.66;;;17.90
24714;BMP280;12820;51.580;5.010;2024-03-23T11:25:43;100982.50;;;17.28
24714;BMP280;12820;51.580;5.010;2024-03-23T11:30:45;100976.88;;;18.03
24714;BMP280;12820;51.580;5.010;2024-03-23T11:35:46;100951.13;;;17.70
24714;BMP280;12820;51.580;5.010;2024-03-23T11:40:49;100968.19;;;18.46
24714;BMP280;12820;51.580;5.010;2024-03-23T11:45:52;100962.13;;;20.22
24714;BMP280;12820;51.580;5.010;2024-03-23T11:50:56;100940.56;;;22.07
24714;BMP280;12820;51.580;5.010;2024-03-23T11:55:59;100918.28;;;23.92
24714;BMP280;12820;51.580;5.010;2024-03-23T12:01:04;100921.69;;;23.67
24714;BMP280;12820;51.580;5.010;2024-03-23T12:06:06;100941.75;;;20.84
24714;BMP280;12820;51.580;5.010;2024-03-23T12:11:13;100955.75;;;18.77
24714;BMP280;12820;51.580;5.010;2024-03-23T12:16:19;100964.53;;;17.33
24714;BMP280;12820;51.580;5.010;2024-03-23T12:21:22;100961.03;;;16.71
24714;BMP280;12820;51.580;5.010;2024-03-23T12:26:24;100935.47;;;16.75
24714;BMP280;12820;51.580;5.010;2024-03-23T12:31:25;100945.31;;;16.62
24714;BMP280;12820;51.580;5.010;2024-03-23T12:36:26;100937.06;;;16.55
24714;BMP280;12820;51.580;5.010;2024-03-23T12:41:27;100943.75;;;16.58
24714;BMP280;12820;51.580;5.010;2024-03-23T12:46:28;100943.00;;;16.78
24714;BMP280;12820;51.580;5.010;2024-03-23T12:51:29;100966.59;;;16.58
24714;BMP280;12820;51.580;5.010;2024-03-23T12:56:30;100938.00;;;15.83
24714;BMP280;12820;51.580;5.010;2024-03-23T13:01:32;100926.91;;;15.11
24714;BMP280;12820;51.580;5.010;2024-03-23T13:06:34;100935.72;;;14.42
24714;BMP280;12820;51.580;5.010;2024-03-23T13:11:35;100937.97;;;13.91
24714;BMP280;12820;51.580;5.010;2024-03-23T13:16:37;100926.06;;;13.62
24714;BMP280;12820;51.580;5.010;2024-03-23T13:21:38;100913.44;;;13.62
24714;BMP280;12820;51.580;5.010;2024-03-23T13:26:39;100911.34;;;14.10
24714;BMP280;12820;51.580;5.010;2024-03-23T13:31:40;100899.81;;;14.59
24714;BMP280;12820;51.580;5.010;2024-03-23T13:36:42;100886.72;;;14.46
24714;BMP280;12820;51.580;5.010;2024-03-23T13:41:44;100889.88;;;14.80
24714;BMP280;12820;51.580;5.010;2024-03-23T13:46:46;100874.47;;;15.40
24714;BMP280;12820;51.580;5.010;2024-03-23T13:51:48;100863.91;;;15.02
24714;BMP280;12820;51.580;5.010;2024-03-23T13:56:50;100870.47;;;14.54
24714;BMP280;12820;51.580;5.010;2024-03-23T14:01:51;100876.47;;;14.22
24714;BMP280;12820;51.580;5.010;2024-03-23T14:06:53;100860.25;;;14.84
24714;BMP280;12820;51.580;5.010;2024-03-23T14:11:54;100858.06;;;15.00
24714;BMP280;12820;51.580;5.010;2024-03-23T14:16:56;100845.25;;;15.05
24714;BMP280;12820;51.580;5.010;2024-03-23T14:21:57;100844.44;;;14.77
24714;BMP280;12820;51.580;5.010;2024-03-23T14:26:59;100862.84;;;14.56
24714;BMP280;12820;51.580;5.010;2024-03-23T14:32:04;100877.53;;;14.14
24714;BMP280;12820;51.580;5.010;2024-03-23T14:37:06;100866.31;;;13.61
24714;BMP280;12820;51.580;5.010;2024-03-23T14:42:07;100866.97;;;13.04
24714;BMP280;12820;51.580;5.010;2024-03-23T14:47:11;100885.81;;;12.51
24714;BMP280;12820;51.580;5.010;2024-03-23T14:52:14;100911.25;;;11.98
24714;BMP280;12820;51.580;5.010;2024-03-23T14:57:15;100907.25;;;11.41
24714;BMP280;12820;51.580;5.010;2024-03-23T15:02:16;100897.94;;;10.92
24714;BMP280;12820;51.580;5.010;2024-03-23T15:07:17;100913.53;;;10.57
24714;BMP280;12820;51.580;5.010;2024-03-23T15:12:38;100921.44;;;10.26
24714;BMP280;12820;51.580;5.010;2024-03-23T15:17:40;100923.38;;;10.05
24714;BMP280;12820;51.580;5.010;2024-03-23T15:22:47;100926.06;;;9.89
24714;BMP280;12820;51.580;5.010;2024-03-23T15:27:48;100922.81;;;9.74
24714;BMP280;12820;51.580;5.010;2024-03-23T15:32:50;100912.00;;;9.68
24714;BMP280;12820;51.580;5.010;2024-03-23T15:37:51;100897.81;;;9.67
24714;BMP280;12820;51.580;5.010;2024-03-23T15:42:52;100894.47;;;9.63
24714;BMP280;12820;51.580;5.010;2024-03-23T15:47:53;100886.97;;;9.62
24714;BMP280;12820;51.580;5.010;2024-03-23T15:52:54;100870.94;;;9.76
24714;BMP280;12820;51.580;5.010;2024-03-23T15:57:56;100870.69;;;10.01
24714;BMP280;12820;51.580;5.010;2024-03-23T16:02:58;100859.72;;;10.06
24714;BMP280;12820;51.580;5.010;2024-03-23T16:07:59;100869.03;;;10.00
24714;BMP280;12820;51.580;5.010;2024-03-23T16:13:00;100854.88;;;9.94
24714;BMP280;12820;51.580;5.010;2024-03-23T16:18:01;100847.88;;;10.18
24714;BMP280;12820;51.580;5.010;2024-03-23T16:23:03;100829.06;;;11.01
24714;BMP280;12820;51.580;5.010;2024-03-23T16:28:05;100821.69;;;11.41
24714;BMP280;12820;51.580;5.010;2024-03-23T16:33:06;100805.09;;;11.32
24714;BMP280;12820;51.580;5.010;2024-03-23T16:38:10;100795.34;;;11.11
24714;BMP280;12820;51.580;5.010;2024-03-23T16:43:11;100802.50;;;10.86
24714;BMP280;12820;51.580;5.010;2024-03-23T16:48:12;100795.28;;;10.67
24714;BMP280;12820;51.580;5.010;2024-03-23T16:53:13;100779.59;;;10.52
24714;BMP280;12820;51.580;5.010;2024-03-23T16:58:14;100786.69;;;10.24
24714;BMP280;12820;51.580;5.010;2024-03-23T17:03:16;100787.16;;;9.90
24714;BMP280;12820;51.580;5.010;2024-03-23T17:08:17;100782.50;;;9.57
24714;BMP280;12820;51.580;5.010;2024-03-23T17:13:18;100784.47;;;9.28
24714;BMP280;12820;51.580;5.010;2024-03-23T17:18:19;100793.84;;;9.10
24714;BMP280;12820;51.580;5.010;2024-03-23T17:23:24;100792.28;;;8.98
24714;BMP280;12820;51.580;5.010;2024-03-23T17:28:26;100787.31;;;8.92
24714;BMP280;12820;51.580;5.010;2024-03-23T17:33:27;100796.53;;;8.88
24714;BMP280;12820;51.580;5.010;2024-03-23T17:38:28;100798.28;;;8.81
24714;BMP280;12820;51.580;5.010;2024-03-23T17:43:30;100771.59;;;8.74
24714;BMP280;12820;51.580;5.010;2024-03-23T17:48:31;100758.31;;;8.66
24714;BMP280;12820;51.580;5.010;2024-03-23T17:53:39;100760.81;;;8.65
24714;BMP280;12820;51.580;5.010;2024-03-23T17:58:40;100786.66;;;8.68
24714;BMP280;12820;51.580;5.010;2024-03-23T18:03:41;100779.16;;;8.68
24714;BMP280;12820;51.580;5.010;2024-03-23T18:08:43;100781.66;;;8.68
24714;BMP280;12820;51.580;5.010;2024-03-23T18:13:44;100783.34;;;8.66
24714;BMP280;12820;51.580;5.010;2024-03-23T18:18:45;100786.72;;;8.61
24714;BMP280;12820;51.580;5.010;2024-03-23T18:23:47;100784.22;;;8.61
24714;BMP280;12820;51.580;5.010;2024-03-23T18:28:50;100783.38;;;8.60
24714;BMP280;12820;51.580;5.010;2024-03-23T18:33:53;100795.09;;;8.61
24714;BMP280;12820;51.580;5.010;2024-03-23T18:38:55;100789.25;;;8.55
24714;BMP280;12820;51.580;5.010;2024-03-23T18:43:57;100788.44;;;8.54
24714;BMP280;12820;51.580;5.010;2024-03-23T18:49:02;100784.28;;;8.49
24714;BMP280;12820;51.580;5.010;2024-03-23T18:54:06;100791.00;;;8.46
24714;BMP280;12820;51.580;5.010;2024-03-23T18:59:07;100791.03;;;8.43
24714;BMP280;12820;51.580;5.010;2024-03-23T19:04:09;100783.56;;;8.37
24714;BMP280;12820;51.580;5.010;2024-03-23T19:09:11;100781.06;;;8.33
24714;BMP280;12820;51.580;5.010;2024-03-23T19:14:13;100781.91;;;8.30
24714;BMP280;12820;51.580;5.010;2024-03-23T19:19:14;100787.78;;;8.26
24714;BMP280;12820;51.580;5.010;2024-03-23T19:24:16;100785.31;;;8.23
24714;BMP280;12820;51.580;5.010;2024-03-23T19:29:17;100773.66;;;8.19
24714;BMP280;12820;51.580;5.010;2024-03-23T19:34:18;100776.19;;;8.14
24714;BMP280;12820;51.580;5.010;2024-03-23T19:39:20;100779.56;;;8.10
24714;BMP280;12820;51.580;5.010;2024-03-23T19:44:21;100782.06;;;8.05
24714;BMP280;12820;51.580;5.010;2024-03-23T19:49:22;100772.09;;;7.99
24714;BMP280;12820;51.580;5.010;2024-03-23T19:54:27;100765.41;;;7.96
24714;BMP280;12820;51.580;5.010;2024-03-23T19:59:28;100771.28;;;7.90
24714;BMP280;12820;51.580;5.010;2024-03-23T20:04:30;100767.13;;;7.83
24714;BMP280;12820;51.580;5.010;2024-03-23T20:09:31;100748.78;;;7.79
24714;BMP280;12820;51.580;5.010;2024-03-23T20:14:32;100753.84;;;7.73
24714;BMP280;12820;51.580;5.010;2024-03-23T20:19:33;100746.34;;;7.68
24714;BMP280;12820;51.580;5.010;2024-03-23T20:24:35;100758.84;;;7.70
24714;BMP280;12820;51.580;5.010;2024-03-23T20:29:37;100745.53;;;7.68
24714;BMP280;12820;51.580;5.010;2024-03-23T20:34:39;100743.88;;;7.67
24714;BMP280;12820;51.580;5.010;2024-03-23T20:39:40;100757.19;;;7.66
24714;BMP280;12820;51.580;5.010;2024-03-23T20:44:41;100746.38;;;7.63
24714;BMP280;12820;51.580;5.010;2024-03-23T20:49:42;100744.72;;;7.57
24714;BMP280;12820;51.580;5.010;2024-03-23T20:54:44;100744.72;;;7.56
24714;BMP280;12820;51.580;5.010;2024-03-23T20:59:45;100751.41;;;7.51
24714;BMP280;12820;51.580;5.010;2024-03-23T21:04:48;100747.28;;;7.48
24714;BMP280;12820;51.580;5.010;2024-03-23T21:09:49;100743.94;;;7.44
24714;BMP280;12820;51.580;5.010;2024-03-23T21:14:51;100740.59;;;7.46
24714;BMP280;12820;51.580;5.010;2024-03-23T21:19:52;100757.28;;;7.43
24714;BMP280;12820;51.580;5.010;2024-03-23T21:24:53;100739.75;;;7.45
24714;BMP280;12820;51.580;5.010;2024-03-23T21:29:55;100736.41;;;7.49
24714;BMP280;12820;51.580;5.010;2024-03-23T21:34:56;100728.91;;;7.52
24714;BMP280;12820;51.580;5.010;2024-03-23T21:39:57;100718.91;;;7.52
24714;BMP280;12820;51.580;5.010;2024-03-23T21:44:59;100727.25;;;7.51
24714;BMP280;12820;51.580;5.010;2024-03-23T21:50:01;100728.09;;;7.49
24714;BMP280;12820;51.580;5.010;2024-03-23T21:55:02;100720.63;;;7.45
24714;BMP280;12820;51.580;5.010;2024-03-23T22:00:05;100704.81;;;7.40
24714;BMP280;12820;51.580;5.010;2024-03-23T22:05:13;100702.28;;;7.35
24714;BMP280;12820;51.580;5.010;2024-03-23T22:10:14;100705.66;;;7.33
24714;BMP280;12820;51.580;5.010;2024-03-23T22:15:16;100703.16;;;7.28
24714;BMP280;12820;51.580;5.010;2024-03-23T22:20:17;100686.50;;;7.26
24714;BMP280;12820;51.580;5.010;2024-03-23T22:25:22;100676.53;;;7.20
24714;BMP280;12820;51.580;5.010;2024-03-23T22:30:24;100659.06;;;7.14
24714;BMP280;12820;51.580;5.010;2024-03-23T22:35:25;100644.91;;;7.12
24714;BMP280;12820;51.580;5.010;2024-03-23T22:40:27;100645.75;;;7.09
24714;BMP280;12820;51.580;5.010;2024-03-23T22:45:29;100633.28;;;7.05
24714;BMP280;12820;51.580;5.010;2024-03-23T22:50:31;100621.59;;;7.03
24714;BMP280;12820;51.580;5.010;2024-03-23T22:55:32;100598.28;;;7.02
24714;BMP280;12820;51.580;5.010;2024-03-23T23:00:33;100595.81;;;7.01
24714;BMP280;12820;51.580;5.010;2024-03-23T23:05:35;100590.81;;;7.01
24714;BMP280;12820;51.580;5.010;2024-03-23T23:10:38;100578.31;;;6.99
24714;BMP280;12820;51.580;5.010;2024-03-23T23:15:39;100589.13;;;7.03
24714;BMP280;12820;51.580;5.010;2024-03-23T23:20:41;100582.50;;;7.02
24714;BMP280;12820;51.580;5.010;2024-03-23T23:25:43;100580.81;;;7.07
24714;BMP280;12820;51.580;5.010;2024-03-23T23:30:55;100576.63;;;7.09
24714;BMP280;12820;51.580;5.010;2024-03-23T23:35:57;100577.44;;;7.13
24714;BMP280;12820;51.580;5.010;2024-03-23T23:40:58;100574.91;;;7.16
24714;BMP280;12820;51.580;5.010;2024-03-23T23:45:59;100563.25;;;7.17
24714;BMP280;12820;51.580;5.010;2024-03-23T23:51:01;100570.72;;;7.26
24714;BMP280;12820;51.580;5.010;2024-03-23T23:56:02;100561.50;;;7.30
